Litherland, United Kingdom
Current Conditions -  °F | °C
As of 12:20 AM on Monday 22 Dec 2014 (Local Time) from EGGP Reporting Station
Broken Clouds Broken Clouds  
Wind Chill: 55°   Ceiling: 2100
Heat Index: 55°   Visibility: 6mi
Dew Point: 50°   Wind: 17mph
Humidity: 82%   Direction: 230°SW
Pressure: 29.91"   Gusts: 30mph
Location:  53.47°N, 3°W
Report Text: EGGP 220020Z 23015G26KT 9999 BKN021 13/10 Q1013
Loading
Personal Weather Stations






























Interactive Weather Map New forecast layout! Learn more

10-Day Weather Forecast

Advertisements
Track Severe Weather on mobile